sensor_id;sensor_type;location;lat;lon;timestamp;P1;durP1;ratioP1;P2;durP2;ratioP2
33190;SDS011;19554;42.652;23.364;2024-02-23T00:01:30;34.45;;;19.38;;
33190;SDS011;19554;42.652;23.364;2024-02-23T00:03:55;34.45;;;20.67;;
33190;SDS011;19554;42.652;23.364;2024-02-23T00:06:21;31.42;;;19.23;;
33190;SDS011;19554;42.652;23.364;2024-02-23T00:08:48;35.47;;;20.15;;
33190;SDS011;19554;42.652;23.364;2024-02-23T00:11:14;36.30;;;18.20;;
33190;SDS011;19554;42.652;23.364;2024-02-23T00:13:39;31.77;;;18.08;;
33190;SDS011;19554;42.652;23.364;2024-02-23T00:16:05;28.35;;;17.95;;
33190;SDS011;19554;42.652;23.364;2024-02-23T00:18:30;32.53;;;18.23;;
33190;SDS011;19554;42.652;23.364;2024-02-23T00:20:56;33.25;;;18.65;;
33190;SDS011;19554;42.652;23.364;2024-02-23T00:23:21;31.60;;;19.10;;
33190;SDS011;19554;42.652;23.364;2024-02-23T00:25:47;29.50;;;18.02;;
33190;SDS011;19554;42.652;23.364;2024-02-23T00:28:13;31.83;;;18.25;;
33190;SDS011;19554;42.652;23.364;2024-02-23T00:30:38;31.95;;;17.48;;
33190;SDS011;19554;42.652;23.364;2024-02-23T00:33:04;33.10;;;18.20;;
33190;SDS011;19554;42.652;23.364;2024-02-23T00:35:30;38.55;;;19.35;;
33190;SDS011;19554;42.652;23.364;2024-02-23T00:37:55;37.10;;;19.90;;
33190;SDS011;19554;42.652;23.364;2024-02-23T00:40:21;30.65;;;17.30;;
33190;SDS011;19554;42.652;23.364;2024-02-23T00:42:48;30.23;;;16.80;;
33190;SDS011;19554;42.652;23.364;2024-02-23T00:45:14;35.30;;;17.98;;
33190;SDS011;19554;42.652;23.364;2024-02-23T00:47:39;33.03;;;17.75;;
33190;SDS011;19554;42.652;23.364;2024-02-23T00:50:05;26.08;;;14.98;;
33190;SDS011;19554;42.652;23.364;2024-02-23T00:52:31;25.38;;;15.40;;
33190;SDS011;19554;42.652;23.364;2024-02-23T00:54:57;25.35;;;16.50;;
33190;SDS011;19554;42.652;23.364;2024-02-23T00:57:23;28.23;;;17.05;;
33190;SDS011;19554;42.652;23.364;2024-02-23T00:59:52;27.85;;;18.38;;
33190;SDS011;19554;42.652;23.364;2024-02-23T01:02:18;25.70;;;16.77;;
33190;SDS011;19554;42.652;23.364;2024-02-23T01:04:43;26.13;;;16.60;;
33190;SDS011;19554;42.652;23.364;2024-02-23T01:07:09;28.15;;;15.85;;
33190;SDS011;19554;42.652;23.364;2024-02-23T01:09:34;22.85;;;14.95;;
33190;SDS011;19554;42.652;23.364;2024-02-23T01:12:00;26.85;;;14.23;;
33190;SDS011;19554;42.652;23.364;2024-02-23T01:14:25;20.27;;;12.60;;
33190;SDS011;19554;42.652;23.364;2024-02-23T01:16:51;18.45;;;12.88;;
33190;SDS011;19554;42.652;23.364;2024-02-23T01:19:16;21.05;;;12.63;;
33190;SDS011;19554;42.652;23.364;2024-02-23T01:21:43;21.48;;;12.93;;
33190;SDS011;19554;42.652;23.364;2024-02-23T01:24:08;20.08;;;13.55;;
33190;SDS011;19554;42.652;23.364;2024-02-23T01:26:34;23.70;;;14.13;;
33190;SDS011;19554;42.652;23.364;2024-02-23T01:28:59;22.25;;;12.10;;
33190;SDS011;19554;42.652;23.364;2024-02-23T01:31:25;20.35;;;13.60;;
33190;SDS011;19554;42.652;23.364;2024-02-23T01:33:50;23.23;;;12.43;;
33190;SDS011;19554;42.652;23.364;2024-02-23T01:36:16;22.50;;;13.00;;
33190;SDS011;19554;42.652;23.364;2024-02-23T01:38:43;20.20;;;12.52;;
33190;SDS011;19554;42.652;23.364;2024-02-23T01:41:08;21.40;;;13.93;;
33190;SDS011;19554;42.652;23.364;2024-02-23T01:43:34;26.35;;;13.27;;
33190;SDS011;19554;42.652;23.364;2024-02-23T01:45:59;22.67;;;12.20;;
33190;SDS011;19554;42.652;23.364;2024-02-23T01:48:25;18.95;;;12.80;;
33190;SDS011;19554;42.652;23.364;2024-02-23T01:50:52;21.42;;;12.95;;
33190;SDS011;19554;42.652;23.364;2024-02-23T01:53:19;20.88;;;12.90;;
33190;SDS011;19554;42.652;23.364;2024-02-23T01:55:45;19.58;;;12.38;;
33190;SDS011;19554;42.652;23.364;2024-02-23T01:58:11;24.63;;;14.90;;
33190;SDS011;19554;42.652;23.364;2024-02-23T02:00:36;20.20;;;12.90;;
33190;SDS011;19554;42.652;23.364;2024-02-23T02:03:02;18.70;;;12.13;;
33190;SDS011;19554;42.652;23.364;2024-02-23T02:05:28;17.63;;;11.95;;
33190;SDS011;19554;42.652;23.364;2024-02-23T02:07:54;19.05;;;12.35;;
33190;SDS011;19554;42.652;23.364;2024-02-23T02:10:24;19.08;;;13.07;;
33190;SDS011;19554;42.652;23.364;2024-02-23T02:12:51;20.05;;;12.85;;
33190;SDS011;19554;42.652;23.364;2024-02-23T02:15:16;20.67;;;13.45;;
33190;SDS011;19554;42.652;23.364;2024-02-23T02:17:42;19.27;;;12.65;;
33190;SDS011;19554;42.652;23.364;2024-02-23T02:20:11;20.45;;;12.65;;
33190;SDS011;19554;42.652;23.364;2024-02-23T02:22:38;17.83;;;12.93;;
33190;SDS011;19554;42.652;23.364;2024-02-23T02:25:04;18.95;;;12.32;;
33190;SDS011;19554;42.652;23.364;2024-02-23T02:27:31;17.88;;;11.93;;
33190;SDS011;19554;42.652;23.364;2024-02-23T02:29:56;20.70;;;12.15;;
33190;SDS011;19554;42.652;23.364;2024-02-23T02:32:22;18.15;;;12.02;;
33190;SDS011;19554;42.652;23.364;2024-02-23T02:34:48;21.00;;;12.57;;
33190;SDS011;19554;42.652;23.364;2024-02-23T02:37:14;17.08;;;11.13;;
33190;SDS011;19554;42.652;23.364;2024-02-23T02:39:39;23.58;;;12.65;;
33190;SDS011;19554;42.652;23.364;2024-02-23T02:42:05;22.55;;;13.85;;
33190;SDS011;19554;42.652;23.364;2024-02-23T02:44:31;21.45;;;13.23;;
33190;SDS011;19554;42.652;23.364;2024-02-23T02:46:56;24.48;;;12.73;;
33190;SDS011;19554;42.652;23.364;2024-02-23T02:49:22;22.20;;;13.43;;
33190;SDS011;19554;42.652;23.364;2024-02-23T02:51:48;19.10;;;11.63;;
33190;SDS011;19554;42.652;23.364;2024-02-23T02:54:13;19.02;;;11.88;;
33190;SDS011;19554;42.652;23.364;2024-02-23T02:56:42;19.88;;;12.55;;
33190;SDS011;19554;42.652;23.364;2024-02-23T02:59:09;19.33;;;12.63;;
33190;SDS011;19554;42.652;23.364;2024-02-23T03:01:35;18.63;;;12.30;;
33190;SDS011;19554;42.652;23.364;2024-02-23T03:04:00;20.38;;;12.73;;
33190;SDS011;19554;42.652;23.364;2024-02-23T03:06:26;18.92;;;11.75;;
33190;SDS011;19554;42.652;23.364;2024-02-23T03:08:51;19.92;;;12.30;;
33190;SDS011;19554;42.652;23.364;2024-02-23T03:11:17;21.65;;;12.93;;
33190;SDS011;19554;42.652;23.364;2024-02-23T03:13:42;18.20;;;12.02;;
33190;SDS011;19554;42.652;23.364;2024-02-23T03:16:14;20.90;;;12.20;;
33190;SDS011;19554;42.652;23.364;2024-02-23T03:18:40;22.85;;;12.75;;
33190;SDS011;19554;42.652;23.364;2024-02-23T03:21:06;21.90;;;12.75;;
33190;SDS011;19554;42.652;23.364;2024-02-23T03:23:31;20.98;;;12.45;;
33190;SDS011;19554;42.652;23.364;2024-02-23T03:25:57;19.40;;;12.18;;
33190;SDS011;19554;42.652;23.364;2024-02-23T03:28:22;19.05;;;11.98;;
33190;SDS011;19554;42.652;23.364;2024-02-23T03:30:48;18.48;;;11.93;;
33190;SDS011;19554;42.652;23.364;2024-02-23T03:33:13;17.85;;;11.88;;
33190;SDS011;19554;42.652;23.364;2024-02-23T03:35:39;17.58;;;12.20;;
33190;SDS011;19554;42.652;23.364;2024-02-23T03:38:04;18.88;;;12.48;;
33190;SDS011;19554;42.652;23.364;2024-02-23T03:40:30;19.15;;;12.32;;
33190;SDS011;19554;42.652;23.364;2024-02-23T03:42:55;19.00;;;12.55;;
33190;SDS011;19554;42.652;23.364;2024-02-23T03:45:20;19.08;;;11.82;;
33190;SDS011;19554;42.652;23.364;2024-02-23T03:47:46;21.15;;;13.20;;
33190;SDS011;19554;42.652;23.364;2024-02-23T03:50:11;18.35;;;11.77;;
33190;SDS011;19554;42.652;23.364;2024-02-23T03:52:37;17.15;;;12.95;;
33190;SDS011;19554;42.652;23.364;2024-02-23T03:55:02;20.77;;;13.95;;
33190;SDS011;19554;42.652;23.364;2024-02-23T03:57:28;25.80;;;14.38;;
33190;SDS011;19554;42.652;23.364;2024-02-23T03:59:54;25.90;;;14.98;;
33190;SDS011;19554;42.652;23.364;2024-02-23T04:02:20;24.13;;;14.40;;
33190;SDS011;19554;42.652;23.364;2024-02-23T04:04:47;18.10;;;12.55;;
33190;SDS011;19554;42.652;23.364;2024-02-23T04:07:13;17.17;;;12.40;;
33190;SDS011;19554;42.652;23.364;2024-02-23T04:09:39;19.55;;;13.05;;
33190;SDS011;19554;42.652;23.364;2024-02-23T04:12:04;21.60;;;13.45;;
33190;SDS011;19554;42.652;23.364;2024-02-23T04:14:32;24.63;;;15.25;;
33190;SDS011;19554;42.652;23.364;2024-02-23T04:16:58;23.48;;;14.30;;
33190;SDS011;19554;42.652;23.364;2024-02-23T04:19:24;23.15;;;14.50;;
33190;SDS011;19554;42.652;23.364;2024-02-23T04:21:49;20.20;;;13.15;;
33190;SDS011;19554;42.652;23.364;2024-02-23T04:24:15;21.70;;;13.40;;
33190;SDS011;19554;42.652;23.364;2024-02-23T04:26:40;23.92;;;13.68;;
33190;SDS011;19554;42.652;23.364;2024-02-23T04:29:06;24.60;;;14.82;;
33190;SDS011;19554;42.652;23.364;2024-02-23T04:31:31;20.90;;;13.38;;
33190;SDS011;19554;42.652;23.364;2024-02-23T04:33:57;19.90;;;14.00;;
33190;SDS011;19554;42.652;23.364;2024-02-23T04:36:22;19.88;;;12.40;;
33190;SDS011;19554;42.652;23.364;2024-02-23T04:38:48;23.80;;;14.95;;
33190;SDS011;19554;42.652;23.364;2024-02-23T04:41:13;22.52;;;14.55;;
33190;SDS011;19554;42.652;23.364;2024-02-23T04:43:39;23.85;;;15.23;;
33190;SDS011;19554;42.652;23.364;2024-02-23T04:46:04;26.30;;;14.18;;
33190;SDS011;19554;42.652;23.364;2024-02-23T04:48:30;31.63;;;15.73;;
33190;SDS011;19554;42.652;23.364;2024-02-23T04:50:56;28.05;;;16.38;;
33190;SDS011;19554;42.652;23.364;2024-02-23T04:53:22;21.60;;;13.13;;
33190;SDS011;19554;42.652;23.364;2024-02-23T04:55:48;25.70;;;14.27;;
33190;SDS011;19554;42.652;23.364;2024-02-23T04:58:13;23.80;;;13.95;;
33190;SDS011;19554;42.652;23.364;2024-02-23T05:00:39;19.73;;;13.45;;
33190;SDS011;19554;42.652;23.364;2024-02-23T05:03:05;22.40;;;14.55;;
33190;SDS011;19554;42.652;23.364;2024-02-23T05:05:31;23.13;;;14.48;;
33190;SDS011;19554;42.652;23.364;2024-02-23T05:07:57;24.40;;;15.70;;
33190;SDS011;19554;42.652;23.364;2024-02-23T05:10:23;24.33;;;14.65;;
33190;SDS011;19554;42.652;23.364;2024-02-23T05:12:49;22.10;;;14.75;;
33190;SDS011;19554;42.652;23.364;2024-02-23T05:15:14;25.10;;;15.40;;
33190;SDS011;19554;42.652;23.364;2024-02-23T05:17:40;25.05;;;14.02;;
33190;SDS011;19554;42.652;23.364;2024-02-23T05:20:06;28.40;;;18.00;;
33190;SDS011;19554;42.652;23.364;2024-02-23T05:22:35;24.70;;;14.13;;
33190;SDS011;19554;42.652;23.364;2024-02-23T05:25:06;20.83;;;13.10;;
33190;SDS011;19554;42.652;23.364;2024-02-23T05:27:32;32.10;;;14.82;;
33190;SDS011;19554;42.652;23.364;2024-02-23T05:29:58;25.48;;;13.77;;
33190;SDS011;19554;42.652;23.364;2024-02-23T05:32:23;22.55;;;14.93;;
33190;SDS011;19554;42.652;23.364;2024-02-23T05:34:49;25.23;;;14.93;;
33190;SDS011;19554;42.652;23.364;2024-02-23T05:37:17;24.52;;;14.82;;
33190;SDS011;19554;42.652;23.364;2024-02-23T05:39:43;23.23;;;13.15;;
33190;SDS011;19554;42.652;23.364;2024-02-23T05:42:11;21.90;;;14.25;;
33190;SDS011;19554;42.652;23.364;2024-02-23T05:44:39;26.95;;;16.13;;
33190;SDS011;19554;42.652;23.364;2024-02-23T05:47:08;23.92;;;15.10;;
33190;SDS011;19554;42.652;23.364;2024-02-23T05:49:34;28.50;;;15.52;;
33190;SDS011;19554;42.652;23.364;2024-02-23T05:52:00;23.23;;;14.52;;
33190;SDS011;19554;42.652;23.364;2024-02-23T05:54:26;27.95;;;15.50;;
33190;SDS011;19554;42.652;23.364;2024-02-23T05:56:51;26.83;;;15.18;;
33190;SDS011;19554;42.652;23.364;2024-02-23T05:59:16;30.70;;;16.40;;
33190;SDS011;19554;42.652;23.364;2024-02-23T06:01:42;25.50;;;13.35;;
33190;SDS011;19554;42.652;23.364;2024-02-23T06:04:08;27.20;;;13.95;;
33190;SDS011;19554;42.652;23.364;2024-02-23T06:06:34;21.73;;;13.05;;
33190;SDS011;19554;42.652;23.364;2024-02-23T06:08:59;23.70;;;13.23;;
33190;SDS011;19554;42.652;23.364;2024-02-23T06:11:25;26.27;;;14.23;;
33190;SDS011;19554;42.652;23.364;2024-02-23T06:13:51;22.80;;;14.73;;
33190;SDS011;19554;42.652;23.364;2024-02-23T06:16:16;26.02;;;13.73;;
33190;SDS011;19554;42.652;23.364;2024-02-23T06:18:42;20.63;;;13.00;;
33190;SDS011;19554;42.652;23.364;2024-02-23T06:21:14;28.95;;;14.88;;
33190;SDS011;19554;42.652;23.364;2024-02-23T06:23:41;28.23;;;15.77;;
33190;SDS011;19554;42.652;23.364;2024-02-23T06:26:06;35.33;;;15.50;;
33190;SDS011;19554;42.652;23.364;2024-02-23T06:28:32;29.40;;;16.58;;
33190;SDS011;19554;42.652;23.364;2024-02-23T06:30:58;22.80;;;14.10;;
33190;SDS011;19554;42.652;23.364;2024-02-23T06:33:23;24.02;;;15.05;;
33190;SDS011;19554;42.652;23.364;2024-02-23T06:35:49;40.75;;;15.90;;
33190;SDS011;19554;42.652;23.364;2024-02-23T06:38:15;23.92;;;13.85;;
33190;SDS011;19554;42.652;23.364;2024-02-23T06:40:41;21.67;;;14.75;;
33190;SDS011;19554;42.652;23.364;2024-02-23T06:43:07;25.23;;;13.48;;
33190;SDS011;19554;42.652;23.364;2024-02-23T06:45:32;26.70;;;15.95;;
33190;SDS011;19554;42.652;23.364;2024-02-23T06:47:57;34.40;;;16.55;;
33190;SDS011;19554;42.652;23.364;2024-02-23T06:50:23;25.27;;;14.70;;
33190;SDS011;19554;42.652;23.364;2024-02-23T06:52:48;35.25;;;16.58;;
33190;SDS011;19554;42.652;23.364;2024-02-23T06:55:14;26.23;;;15.75;;
33190;SDS011;19554;42.652;23.364;2024-02-23T06:57:41;27.13;;;15.10;;
33190;SDS011;19554;42.652;23.364;2024-02-23T07:00:07;28.85;;;17.45;;
33190;SDS011;19554;42.652;23.364;2024-02-23T07:02:33;25.98;;;17.70;;
33190;SDS011;19554;42.652;23.364;2024-02-23T07:05:01;28.88;;;18.05;;
33190;SDS011;19554;42.652;23.364;2024-02-23T07:07:29;28.30;;;15.52;;
33190;SDS011;19554;42.652;23.364;2024-02-23T07:09:55;27.65;;;15.05;;
33190;SDS011;19554;42.652;23.364;2024-02-23T07:12:21;28.98;;;15.38;;
33190;SDS011;19554;42.652;23.364;2024-02-23T07:14:47;26.42;;;16.25;;
33190;SDS011;19554;42.652;23.364;2024-02-23T07:17:17;30.40;;;15.23;;
33190;SDS011;19554;42.652;23.364;2024-02-23T07:19:42;24.80;;;14.25;;
33190;SDS011;19554;42.652;23.364;2024-02-23T07:22:08;31.98;;;15.80;;
33190;SDS011;19554;42.652;23.364;2024-02-23T07:24:33;25.83;;;14.90;;
33190;SDS011;19554;42.652;23.364;2024-02-23T07:26:59;27.55;;;15.20;;
33190;SDS011;19554;42.652;23.364;2024-02-23T07:29:24;24.38;;;15.00;;
33190;SDS011;19554;42.652;23.364;2024-02-23T07:31:50;25.67;;;15.13;;
33190;SDS011;19554;42.652;23.364;2024-02-23T07:34:15;29.40;;;16.33;;
33190;SDS011;19554;42.652;23.364;2024-02-23T07:36:41;29.58;;;16.48;;
33190;SDS011;19554;42.652;23.364;2024-02-23T07:39:08;21.40;;;13.93;;
33190;SDS011;19554;42.652;23.364;2024-02-23T07:41:33;27.52;;;15.90;;
33190;SDS011;19554;42.652;23.364;2024-02-23T07:43:59;21.48;;;13.30;;
33190;SDS011;19554;42.652;23.364;2024-02-23T07:46:24;35.83;;;16.60;;
33190;SDS011;19554;42.652;23.364;2024-02-23T07:48:50;22.00;;;14.93;;
33190;SDS011;19554;42.652;23.364;2024-02-23T07:51:15;23.90;;;13.82;;
33190;SDS011;19554;42.652;23.364;2024-02-23T07:53:41;20.92;;;13.43;;
33190;SDS011;19554;42.652;23.364;2024-02-23T07:56:09;23.17;;;12.93;;
33190;SDS011;19554;42.652;23.364;2024-02-23T07:58:35;20.45;;;12.77;;
33190;SDS011;19554;42.652;23.364;2024-02-23T08:01:00;21.02;;;13.10;;
33190;SDS011;19554;42.652;23.364;2024-02-23T08:03:26;26.45;;;13.60;;
33190;SDS011;19554;42.652;23.364;2024-02-23T08:05:51;25.83;;;13.73;;
33190;SDS011;19554;42.652;23.364;2024-02-23T08:08:17;20.33;;;12.80;;
33190;SDS011;19554;42.652;23.364;2024-02-23T08:10:43;21.80;;;12.75;;
33190;SDS011;19554;42.652;23.364;2024-02-23T08:13:09;21.95;;;12.63;;
33190;SDS011;19554;42.652;23.364;2024-02-23T08:15:35;19.95;;;11.45;;
33190;SDS011;19554;42.652;23.364;2024-02-23T08:18:01;21.88;;;11.88;;
33190;SDS011;19554;42.652;23.364;2024-02-23T08:20:27;21.45;;;12.30;;
33190;SDS011;19554;42.652;23.364;2024-02-23T08:22:52;19.52;;;12.48;;
33190;SDS011;19554;42.652;23.364;2024-02-23T08:25:18;26.67;;;13.50;;
33190;SDS011;19554;42.652;23.364;2024-02-23T08:27:43;21.13;;;13.27;;
33190;SDS011;19554;42.652;23.364;2024-02-23T08:30:09;27.08;;;13.38;;
33190;SDS011;19554;42.652;23.364;2024-02-23T08:32:36;21.02;;;12.98;;
33190;SDS011;19554;42.652;23.364;2024-02-23T08:35:01;24.50;;;14.02;;
33190;SDS011;19554;42.652;23.364;2024-02-23T08:37:27;20.33;;;13.00;;
33190;SDS011;19554;42.652;23.364;2024-02-23T08:39:53;20.38;;;11.80;;
33190;SDS011;19554;42.652;23.364;2024-02-23T08:42:19;22.02;;;12.50;;
33190;SDS011;19554;42.652;23.364;2024-02-23T08:44:45;19.50;;;12.13;;
33190;SDS011;19554;42.652;23.364;2024-02-23T08:47:10;26.80;;;14.00;;
33190;SDS011;19554;42.652;23.364;2024-02-23T08:49:35;18.73;;;12.13;;
33190;SDS011;19554;42.652;23.364;2024-02-23T08:52:01;21.02;;;13.38;;
33190;SDS011;19554;42.652;23.364;2024-02-23T08:54:27;22.00;;;12.85;;
33190;SDS011;19554;42.652;23.364;2024-02-23T08:56:53;30.38;;;12.50;;
33190;SDS011;19554;42.652;23.364;2024-02-23T08:59:18;21.90;;;12.57;;
33190;SDS011;19554;42.652;23.364;2024-02-23T09:01:44;16.35;;;11.40;;
33190;SDS011;19554;42.652;23.364;2024-02-23T09:04:11;19.35;;;11.10;;
33190;SDS011;19554;42.652;23.364;2024-02-23T09:06:37;23.90;;;12.23;;
33190;SDS011;19554;42.652;23.364;2024-02-23T09:09:02;21.45;;;11.32;;
33190;SDS011;19554;42.652;23.364;2024-02-23T09:11:28;18.33;;;11.23;;
33190;SDS011;19554;42.652;23.364;2024-02-23T09:13:53;18.50;;;10.93;;
33190;SDS011;19554;42.652;23.364;2024-02-23T09:16:19;16.00;;;10.57;;
33190;SDS011;19554;42.652;23.364;2024-02-23T09:18:45;16.63;;;10.43;;
33190;SDS011;19554;42.652;23.364;2024-02-23T09:21:11;13.93;;;9.80;;
33190;SDS011;19554;42.652;23.364;2024-02-23T09:23:36;16.92;;;10.38;;
33190;SDS011;19554;42.652;23.364;2024-02-23T09:26:08;18.13;;;10.30;;
33190;SDS011;19554;42.652;23.364;2024-02-23T09:28:34;16.05;;;10.10;;
33190;SDS011;19554;42.652;23.364;2024-02-23T09:31:00;18.75;;;9.55;;
33190;SDS011;19554;42.652;23.364;2024-02-23T09:33:25;15.32;;;9.60;;
33190;SDS011;19554;42.652;23.364;2024-02-23T09:35:51;15.40;;;9.55;;
33190;SDS011;19554;42.652;23.364;2024-02-23T09:38:16;13.02;;;7.30;;
33190;SDS011;19554;42.652;23.364;2024-02-23T09:40:42;13.23;;;7.95;;
33190;SDS011;19554;42.652;23.364;2024-02-23T09:43:07;14.10;;;8.13;;
33190;SDS011;19554;42.652;23.364;2024-02-23T09:45:34;12.00;;;8.27;;
33190;SDS011;19554;42.652;23.364;2024-02-23T09:47:59;13.82;;;7.65;;
33190;SDS011;19554;42.652;23.364;2024-02-23T09:50:28;13.95;;;6.97;;
33190;SDS011;19554;42.652;23.364;2024-02-23T09:52:56;16.55;;;7.90;;
33190;SDS011;19554;42.652;23.364;2024-02-23T09:55:23;12.77;;;6.75;;
33190;SDS011;19554;42.652;23.364;2024-02-23T09:57:50;9.18;;;6.32;;
33190;SDS011;19554;42.652;23.364;2024-02-23T10:00:19;8.65;;;6.05;;
33190;SDS011;19554;42.652;23.364;2024-02-23T10:02:45;11.63;;;6.15;;
33190;SDS011;19554;42.652;23.364;2024-02-23T10:05:12;11.20;;;6.05;;
33190;SDS011;19554;42.652;23.364;2024-02-23T10:07:40;8.50;;;5.70;;
33190;SDS011;19554;42.652;23.364;2024-02-23T10:10:06;7.47;;;5.60;;
33190;SDS011;19554;42.652;23.364;2024-02-23T10:12:33;8.85;;;5.65;;
33190;SDS011;19554;42.652;23.364;2024-02-23T10:15:02;7.65;;;5.70;;
33190;SDS011;19554;42.652;23.364;2024-02-23T10:17:31;6.35;;;4.32;;
33190;SDS011;19554;42.652;23.364;2024-02-23T10:19:58;9.25;;;5.05;;
33190;SDS011;19554;42.652;23.364;2024-02-23T10:22:24;6.90;;;5.05;;
33190;SDS011;19554;42.652;23.364;2024-02-23T10:27:20;10.10;;;4.75;;
33190;SDS011;19554;42.652;23.364;2024-02-23T10:29:49;9.25;;;4.72;;
33190;SDS011;19554;42.652;23.364;2024-02-23T10:32:19;8.93;;;4.45;;
33190;SDS011;19554;42.652;23.364;2024-02-23T10:34:47;4.03;;;3.40;;
33190;SDS011;19554;42.652;23.364;2024-02-23T10:37:16;5.03;;;3.05;;
33190;SDS011;19554;42.652;23.364;2024-02-23T10:39:42;5.13;;;3.38;;
33190;SDS011;19554;42.652;23.364;2024-02-23T10:42:08;6.88;;;3.17;;
33190;SDS011;19554;42.652;23.364;2024-02-23T10:44:35;3.58;;;2.75;;
33190;SDS011;19554;42.652;23.364;2024-02-23T10:47:02;7.63;;;3.70;;
33190;SDS011;19554;42.652;23.364;2024-02-23T10:49:29;4.32;;;2.60;;
33190;SDS011;19554;42.652;23.364;2024-02-23T10:51:55;6.70;;;4.40;;
33190;SDS011;19554;42.652;23.364;2024-02-23T10:54:22;9.75;;;5.95;;
33190;SDS011;19554;42.652;23.364;2024-02-23T10:56:49;3.40;;;2.67;;
33190;SDS011;19554;42.652;23.364;2024-02-23T10:59:15;6.43;;;2.80;;
33190;SDS011;19554;42.652;23.364;2024-02-23T11:01:52;4.57;;;3.20;;
33190;SDS011;19554;42.652;23.364;2024-02-23T11:04:22;4.22;;;3.10;;
33190;SDS011;19554;42.652;23.364;2024-02-23T11:06:50;4.05;;;3.08;;
33190;SDS011;19554;42.652;23.364;2024-02-23T11:09:29;3.63;;;2.72;;
33190;SDS011;19554;42.652;23.364;2024-02-23T11:11:58;4.25;;;2.70;;
33190;SDS011;19554;42.652;23.364;2024-02-23T11:14:36;3.95;;;2.97;;
33190;SDS011;19554;42.652;23.364;2024-02-23T11:17:03;3.38;;;2.40;;
33190;SDS011;19554;42.652;23.364;2024-02-23T11:19:36;5.93;;;2.60;;
33190;SDS011;19554;42.652;23.364;2024-02-23T11:22:03;4.07;;;2.90;;
33190;SDS011;19554;42.652;23.364;2024-02-23T11:24:29;3.13;;;2.47;;
33190;SDS011;19554;42.652;23.364;2024-02-23T11:26:56;7.63;;;3.47;;
33190;SDS011;19554;42.652;23.364;2024-02-23T11:29:33;7.25;;;2.85;;
33190;SDS011;19554;42.652;23.364;2024-02-23T11:31:59;6.20;;;2.90;;
33190;SDS011;19554;42.652;23.364;2024-02-23T11:34:29;4.18;;;3.22;;
33190;SDS011;19554;42.652;23.364;2024-02-23T11:36:55;5.20;;;3.40;;
33190;SDS011;19554;42.652;23.364;2024-02-23T11:39:23;5.82;;;3.75;;
33190;SDS011;19554;42.652;23.364;2024-02-23T11:41:49;4.03;;;3.13;;
33190;SDS011;19554;42.652;23.364;2024-02-23T11:44:15;5.82;;;2.78;;
33190;SDS011;19554;42.652;23.364;2024-02-23T11:46:42;5.25;;;3.25;;
33190;SDS011;19554;42.652;23.364;2024-02-23T11:49:10;3.40;;;2.78;;
33190;SDS011;19554;42.652;23.364;2024-02-23T11:51:35;5.13;;;2.70;;
33190;SDS011;19554;42.652;23.364;2024-02-23T11:54:01;3.08;;;2.53;;
33190;SDS011;19554;42.652;23.364;2024-02-23T11:56:28;3.22;;;2.80;;
33190;SDS011;19554;42.652;23.364;2024-02-23T11:58:54;4.30;;;2.78;;
33190;SDS011;19554;42.652;23.364;2024-02-23T12:01:20;3.53;;;2.67;;
33190;SDS011;19554;42.652;23.364;2024-02-23T12:03:46;5.28;;;2.40;;
33190;SDS011;19554;42.652;23.364;2024-02-23T12:06:11;4.57;;;2.65;;
33190;SDS011;19554;42.652;23.364;2024-02-23T12:08:41;5.03;;;3.30;;
33190;SDS011;19554;42.652;23.364;2024-02-23T12:11:07;3.42;;;2.63;;
33190;SDS011;19554;42.652;23.364;2024-02-23T12:13:37;3.25;;;2.53;;
33190;SDS011;19554;42.652;23.364;2024-02-23T12:16:03;6.68;;;2.80;;
33190;SDS011;19554;42.652;23.364;2024-02-23T12:18:32;3.85;;;2.70;;
33190;SDS011;19554;42.652;23.364;2024-02-23T12:21:01;2.55;;;2.25;;
33190;SDS011;19554;42.652;23.364;2024-02-23T12:23:43;3.65;;;2.50;;
33190;SDS011;19554;42.652;23.364;2024-02-23T12:26:10;7.43;;;2.70;;
33190;SDS011;19554;42.652;23.364;2024-02-23T12:28:38;5.47;;;2.60;;
33190;SDS011;19554;42.652;23.364;2024-02-23T12:31:04;5.32;;;2.63;;
33190;SDS011;19554;42.652;23.364;2024-02-23T12:33:31;4.15;;;2.40;;
33190;SDS011;19554;42.652;23.364;2024-02-23T12:35:59;3.10;;;2.55;;
33190;SDS011;19554;42.652;23.364;2024-02-23T12:38:25;3.25;;;2.42;;
33190;SDS011;19554;42.652;23.364;2024-02-23T12:40:51;6.18;;;2.42;;
33190;SDS011;19554;42.652;23.364;2024-02-23T12:43:17;2.83;;;2.10;;
33190;SDS011;19554;42.652;23.364;2024-02-23T12:45:43;8.45;;;2.50;;
33190;SDS011;19554;42.652;23.364;2024-02-23T12:48:14;4.80;;;2.38;;
33190;SDS011;19554;42.652;23.364;2024-02-23T12:50:42;3.80;;;2.47;;
33190;SDS011;19554;42.652;23.364;2024-02-23T12:53:08;3.05;;;2.13;;
33190;SDS011;19554;42.652;23.364;2024-02-23T12:55:35;4.15;;;2.55;;
33190;SDS011;19554;42.652;23.364;2024-02-23T12:58:02;4.50;;;2.88;;
33190;SDS011;19554;42.652;23.364;2024-02-23T13:00:27;3.20;;;2.40;;
33190;SDS011;19554;42.652;23.364;2024-02-23T13:02:53;2.97;;;2.15;;
33190;SDS011;19554;42.652;23.364;2024-02-23T13:05:19;7.65;;;2.10;;
33190;SDS011;19554;42.652;23.364;2024-02-23T13:07:45;4.10;;;2.30;;
33190;SDS011;19554;42.652;23.364;2024-02-23T13:10:11;3.45;;;2.30;;
33190;SDS011;19554;42.652;23.364;2024-02-23T13:12:36;3.50;;;2.30;;
33190;SDS011;19554;42.652;23.364;2024-02-23T13:15:02;3.70;;;2.53;;
33190;SDS011;19554;42.652;23.364;2024-02-23T13:17:28;4.22;;;2.45;;
33190;SDS011;19554;42.652;23.364;2024-02-23T13:19:53;4.03;;;2.60;;
33190;SDS011;19554;42.652;23.364;2024-02-23T13:22:19;4.95;;;2.75;;
33190;SDS011;19554;42.652;23.364;2024-02-23T13:24:44;4.22;;;2.20;;
33190;SDS011;19554;42.652;23.364;2024-02-23T13:27:10;4.38;;;2.65;;
33190;SDS011;19554;42.652;23.364;2024-02-23T13:29:35;2.10;;;1.90;;
33190;SDS011;19554;42.652;23.364;2024-02-23T13:32:01;3.63;;;2.20;;
33190;SDS011;19554;42.652;23.364;2024-02-23T13:34:27;6.03;;;3.10;;
33190;SDS011;19554;42.652;23.364;2024-02-23T13:36:52;5.10;;;2.30;;
33190;SDS011;19554;42.652;23.364;2024-02-23T13:39:18;2.83;;;2.13;;
33190;SDS011;19554;42.652;23.364;2024-02-23T13:41:44;5.30;;;2.40;;
33190;SDS011;19554;42.652;23.364;2024-02-23T13:44:09;2.60;;;1.98;;
33190;SDS011;19554;42.652;23.364;2024-02-23T13:46:35;3.33;;;1.92;;
33190;SDS011;19554;42.652;23.364;2024-02-23T13:49:05;3.50;;;2.28;;
33190;SDS011;19554;42.652;23.364;2024-02-23T13:51:32;2.85;;;2.20;;
33190;SDS011;19554;42.652;23.364;2024-02-23T13:53:58;3.85;;;2.10;;
33190;SDS011;19554;42.652;23.364;2024-02-23T13:56:24;4.43;;;2.28;;
33190;SDS011;19554;42.652;23.364;2024-02-23T13:58:50;4.00;;;2.00;;
33190;SDS011;19554;42.652;23.364;2024-02-23T14:01:15;4.72;;;2.50;;
33190;SDS011;19554;42.652;23.364;2024-02-23T14:03:41;3.28;;;2.30;;
33190;SDS011;19554;42.652;23.364;2024-02-23T14:06:06;4.13;;;2.75;;
33190;SDS011;19554;42.652;23.364;2024-02-23T14:08:34;4.40;;;2.22;;
33190;SDS011;19554;42.652;23.364;2024-02-23T14:11:02;4.57;;;2.78;;
33190;SDS011;19554;42.652;23.364;2024-02-23T14:13:30;3.90;;;2.40;;